sensor_id;sensor_type;location;lat;lon;timestamp;P1;durP1;ratioP1;P2;durP2;ratioP2
17171;SDS011;8701;50.150;8.756;2022-11-18T00:01:18;9.53;;;6.90;;
17171;SDS011;8701;50.150;8.756;2022-11-18T00:05:22;10.30;;;6.13;;
17171;SDS011;8701;50.150;8.756;2022-11-18T00:09:24;9.90;;;6.87;;
17171;SDS011;8701;50.150;8.756;2022-11-18T00:13:29;14.00;;;6.33;;
17171;SDS011;8701;50.150;8.756;2022-11-18T00:17:49;8.60;;;5.30;;
17171;SDS011;8701;50.150;8.756;2022-11-18T00:21:52;9.30;;;5.10;;
17171;SDS011;8701;50.150;8.756;2022-11-18T00:26:05;9.53;;;5.57;;
17171;SDS011;8701;50.150;8.756;2022-11-18T00:30:13;5.53;;;4.70;;
17171;SDS011;8701;50.150;8.756;2022-11-18T00:34:16;7.70;;;4.67;;
17171;SDS011;8701;50.150;8.756;2022-11-18T00:38:19;9.80;;;6.13;;
17171;SDS011;8701;50.150;8.756;2022-11-18T00:42:21;8.90;;;5.40;;
17171;SDS011;8701;50.150;8.756;2022-11-18T00:46:44;9.73;;;4.77;;
17171;SDS011;8701;50.150;8.756;2022-11-18T00:50:47;5.73;;;4.97;;
17171;SDS011;8701;50.150;8.756;2022-11-18T00:54:50;8.40;;;4.77;;
17171;SDS011;8701;50.150;8.756;2022-11-18T00:58:52;8.93;;;5.10;;
17171;SDS011;8701;50.150;8.756;2022-11-18T01:02:56;13.93;;;5.23;;
17171;SDS011;8701;50.150;8.756;2022-11-18T01:06:58;10.00;;;4.87;;
17171;SDS011;8701;50.150;8.756;2022-11-18T01:11:01;7.33;;;4.67;;
17171;SDS011;8701;50.150;8.756;2022-11-18T01:15:17;7.60;;;5.23;;
17171;SDS011;8701;50.150;8.756;2022-11-18T01:19:21;8.97;;;5.50;;
17171;SDS011;8701;50.150;8.756;2022-11-18T01:23:24;9.17;;;5.20;;
17171;SDS011;8701;50.150;8.756;2022-11-18T01:27:26;6.17;;;4.80;;
17171;SDS011;8701;50.150;8.756;2022-11-18T01:31:28;6.97;;;4.73;;
17171;SDS011;8701;50.150;8.756;2022-11-18T01:35:34;10.20;;;5.80;;
17171;SDS011;8701;50.150;8.756;2022-11-18T01:39:37;12.63;;;5.30;;
17171;SDS011;8701;50.150;8.756;2022-11-18T01:43:51;6.70;;;5.70;;
17171;SDS011;8701;50.150;8.756;2022-11-18T01:47:56;8.77;;;5.47;;
17171;SDS011;8701;50.150;8.756;2022-11-18T01:52:05;7.33;;;6.07;;
17171;SDS011;8701;50.150;8.756;2022-11-18T01:56:09;7.77;;;5.13;;
17171;SDS011;8701;50.150;8.756;2022-11-18T02:00:15;9.03;;;5.50;;
17171;SDS011;8701;50.150;8.756;2022-11-18T02:04:18;8.10;;;6.17;;
17171;SDS011;8701;50.150;8.756;2022-11-18T02:08:21;9.00;;;6.17;;
17171;SDS011;8701;50.150;8.756;2022-11-18T02:12:24;9.63;;;6.67;;
17171;SDS011;8701;50.150;8.756;2022-11-18T02:16:28;13.40;;;6.23;;
17171;SDS011;8701;50.150;8.756;2022-11-18T02:20:42;13.63;;;6.83;;
17171;SDS011;8701;50.150;8.756;2022-11-18T02:24:48;12.10;;;6.00;;
17171;SDS011;8701;50.150;8.756;2022-11-18T02:29:02;9.53;;;6.60;;
17171;SDS011;8701;50.150;8.756;2022-11-18T02:33:09;12.80;;;7.30;;
17171;SDS011;8701;50.150;8.756;2022-11-18T02:37:15;13.63;;;7.00;;
17171;SDS011;8701;50.150;8.756;2022-11-18T02:41:24;7.97;;;6.57;;
17171;SDS011;8701;50.150;8.756;2022-11-18T02:45:30;10.97;;;6.67;;
17171;SDS011;8701;50.150;8.756;2022-11-18T02:49:34;8.20;;;6.07;;
17171;SDS011;8701;50.150;8.756;2022-11-18T02:53:39;7.77;;;6.93;;
17171;SDS011;8701;50.150;8.756;2022-11-18T02:57:43;10.33;;;7.47;;
17171;SDS011;8701;50.150;8.756;2022-11-18T03:01:47;8.40;;;6.80;;
17171;SDS011;8701;50.150;8.756;2022-11-18T03:05:51;11.20;;;7.73;;
17171;SDS011;8701;50.150;8.756;2022-11-18T03:10:01;12.57;;;8.90;;
17171;SDS011;8701;50.150;8.756;2022-11-18T03:14:07;15.53;;;10.23;;
17171;SDS011;8701;50.150;8.756;2022-11-18T03:18:19;20.10;;;12.90;;
17171;SDS011;8701;50.150;8.756;2022-11-18T03:22:27;19.80;;;12.60;;
17171;SDS011;8701;50.150;8.756;2022-11-18T03:26:34;19.10;;;13.90;;
17171;SDS011;8701;50.150;8.756;2022-11-18T03:30:42;20.03;;;12.57;;
17171;SDS011;8701;50.150;8.756;2022-11-18T03:34:48;17.43;;;12.63;;
17171;SDS011;8701;50.150;8.756;2022-11-18T03:38:56;22.63;;;13.07;;
17171;SDS011;8701;50.150;8.756;2022-11-18T03:43:01;19.10;;;12.93;;
17171;SDS011;8701;50.150;8.756;2022-11-18T03:47:08;20.37;;;13.10;;
17171;SDS011;8701;50.150;8.756;2022-11-18T03:51:17;18.83;;;13.27;;
17171;SDS011;8701;50.150;8.756;2022-11-18T03:55:23;19.30;;;12.93;;
17171;SDS011;8701;50.150;8.756;2022-11-18T03:59:32;14.83;;;10.20;;
17171;SDS011;8701;50.150;8.756;2022-11-18T04:03:38;24.63;;;13.70;;
17171;SDS011;8701;50.150;8.756;2022-11-18T04:07:43;20.67;;;13.63;;
17171;SDS011;8701;50.150;8.756;2022-11-18T04:11:57;17.40;;;12.50;;
17171;SDS011;8701;50.150;8.756;2022-11-18T04:16:03;21.77;;;12.67;;
17171;SDS011;8701;50.150;8.756;2022-11-18T04:20:11;22.90;;;13.20;;
17171;SDS011;8701;50.150;8.756;2022-11-18T04:24:18;20.00;;;12.40;;
17171;SDS011;8701;50.150;8.756;2022-11-18T04:28:20;23.03;;;13.20;;
17171;SDS011;8701;50.150;8.756;2022-11-18T04:32:22;22.93;;;12.93;;
17171;SDS011;8701;50.150;8.756;2022-11-18T04:36:26;22.53;;;12.47;;
17171;SDS011;8701;50.150;8.756;2022-11-18T04:40:29;21.20;;;12.53;;
17171;SDS011;8701;50.150;8.756;2022-11-18T04:44:32;20.40;;;11.87;;
17171;SDS011;8701;50.150;8.756;2022-11-18T04:48:34;19.93;;;11.00;;
17171;SDS011;8701;50.150;8.756;2022-11-18T04:52:36;13.40;;;9.60;;
17171;SDS011;8701;50.150;8.756;2022-11-18T04:56:41;12.13;;;9.27;;
17171;SDS011;8701;50.150;8.756;2022-11-18T05:00:43;13.00;;;9.33;;
17171;SDS011;8701;50.150;8.756;2022-11-18T05:04:46;17.40;;;9.53;;
17171;SDS011;8701;50.150;8.756;2022-11-18T05:08:48;16.27;;;9.30;;
17171;SDS011;8701;50.150;8.756;2022-11-18T05:12:52;12.00;;;8.10;;
17171;SDS011;8701;50.150;8.756;2022-11-18T05:16:54;12.27;;;8.60;;
17171;SDS011;8701;50.150;8.756;2022-11-18T05:20:58;11.63;;;8.40;;
17171;SDS011;8701;50.150;8.756;2022-11-18T05:25:00;10.90;;;8.60;;
17171;SDS011;8701;50.150;8.756;2022-11-18T05:29:04;11.37;;;8.47;;
17171;SDS011;8701;50.150;8.756;2022-11-18T05:33:06;11.90;;;8.80;;
17171;SDS011;8701;50.150;8.756;2022-11-18T05:37:09;13.50;;;9.00;;
17171;SDS011;8701;50.150;8.756;2022-11-18T05:41:11;10.47;;;8.47;;
17171;SDS011;8701;50.150;8.756;2022-11-18T05:45:35;13.33;;;8.97;;
17171;SDS011;8701;50.150;8.756;2022-11-18T05:49:40;14.07;;;7.93;;
17171;SDS011;8701;50.150;8.756;2022-11-18T05:53:42;14.63;;;9.30;;
17171;SDS011;8701;50.150;8.756;2022-11-18T05:57:45;12.73;;;9.30;;
17171;SDS011;8701;50.150;8.756;2022-11-18T06:01:49;13.73;;;9.17;;
17171;SDS011;8701;50.150;8.756;2022-11-18T06:05:55;13.20;;;9.13;;
17171;SDS011;8701;50.150;8.756;2022-11-18T06:10:00;13.90;;;8.73;;
17171;SDS011;8701;50.150;8.756;2022-11-18T06:14:04;13.47;;;9.13;;
17171;SDS011;8701;50.150;8.756;2022-11-18T06:18:14;10.50;;;8.03;;
17171;SDS011;8701;50.150;8.756;2022-11-18T06:22:19;12.20;;;7.90;;
17171;SDS011;8701;50.150;8.756;2022-11-18T06:26:22;16.27;;;10.10;;
17171;SDS011;8701;50.150;8.756;2022-11-18T06:34:31;14.27;;;10.30;;
17171;SDS011;8701;50.150;8.756;2022-11-18T06:38:33;15.20;;;9.23;;
17171;SDS011;8701;50.150;8.756;2022-11-18T06:42:36;12.40;;;8.83;;
17171;SDS011;8701;50.150;8.756;2022-11-18T06:46:57;11.03;;;8.33;;
17171;SDS011;8701;50.150;8.756;2022-11-18T06:51:04;11.23;;;8.90;;
17171;SDS011;8701;50.150;8.756;2022-11-18T06:55:07;11.50;;;8.77;;
17171;SDS011;8701;50.150;8.756;2022-11-18T06:59:10;11.30;;;8.43;;
17171;SDS011;8701;50.150;8.756;2022-11-18T07:03:12;10.57;;;8.03;;
17171;SDS011;8701;50.150;8.756;2022-11-18T07:07:16;14.70;;;9.43;;
17171;SDS011;8701;50.150;8.756;2022-11-18T07:11:19;13.10;;;8.83;;
17171;SDS011;8701;50.150;8.756;2022-11-18T07:15:36;13.20;;;8.63;;
17171;SDS011;8701;50.150;8.756;2022-11-18T07:19:38;16.17;;;9.17;;
17171;SDS011;8701;50.150;8.756;2022-11-18T07:23:42;12.50;;;8.93;;
17171;SDS011;8701;50.150;8.756;2022-11-18T07:27:45;9.50;;;7.80;;
17171;SDS011;8701;50.150;8.756;2022-11-18T07:31:47;13.03;;;7.50;;
17171;SDS011;8701;50.150;8.756;2022-11-18T07:35:50;12.40;;;8.17;;
17171;SDS011;8701;50.150;8.756;2022-11-18T07:39:53;14.17;;;8.40;;
17171;SDS011;8701;50.150;8.756;2022-11-18T07:43:56;15.93;;;9.10;;
17171;SDS011;8701;50.150;8.756;2022-11-18T07:48:00;16.90;;;8.30;;
17171;SDS011;8701;50.150;8.756;2022-11-18T07:52:02;11.47;;;8.37;;
17171;SDS011;8701;50.150;8.756;2022-11-18T07:56:06;15.57;;;9.20;;
17171;SDS011;8701;50.150;8.756;2022-11-18T08:00:10;12.30;;;8.00;;
17171;SDS011;8701;50.150;8.756;2022-11-18T08:04:15;17.63;;;8.83;;
17171;SDS011;8701;50.150;8.756;2022-11-18T08:08:18;11.80;;;8.67;;
17171;SDS011;8701;50.150;8.756;2022-11-18T08:12:21;16.00;;;9.47;;
17171;SDS011;8701;50.150;8.756;2022-11-18T08:16:24;15.47;;;10.43;;
17171;SDS011;8701;50.150;8.756;2022-11-18T08:20:27;17.97;;;11.33;;
17171;SDS011;8701;50.150;8.756;2022-11-18T08:24:29;23.77;;;10.23;;
17171;SDS011;8701;50.150;8.756;2022-11-18T08:28:32;18.27;;;10.93;;
17171;SDS011;8701;50.150;8.756;2022-11-18T08:32:35;15.97;;;10.47;;
17171;SDS011;8701;50.150;8.756;2022-11-18T08:36:37;16.83;;;10.70;;
17171;SDS011;8701;50.150;8.756;2022-11-18T08:40:40;18.07;;;10.93;;
17171;SDS011;8701;50.150;8.756;2022-11-18T08:44:45;17.17;;;10.70;;
17171;SDS011;8701;50.150;8.756;2022-11-18T08:48:48;14.53;;;10.20;;
17171;SDS011;8701;50.150;8.756;2022-11-18T08:52:50;15.97;;;10.70;;
17171;SDS011;8701;50.150;8.756;2022-11-18T08:56:52;15.67;;;10.43;;
17171;SDS011;8701;50.150;8.756;2022-11-18T09:00:56;21.73;;;11.77;;
17171;SDS011;8701;50.150;8.756;2022-11-18T09:04:58;14.37;;;10.40;;
17171;SDS011;8701;50.150;8.756;2022-11-18T09:09:01;14.30;;;10.20;;
17171;SDS011;8701;50.150;8.756;2022-11-18T09:13:03;16.80;;;10.93;;
17171;SDS011;8701;50.150;8.756;2022-11-18T09:17:07;16.00;;;9.10;;
17171;SDS011;8701;50.150;8.756;2022-11-18T09:21:09;18.50;;;10.87;;
17171;SDS011;8701;50.150;8.756;2022-11-18T09:25:11;15.20;;;11.07;;
17171;SDS011;8701;50.150;8.756;2022-11-18T09:29:14;17.67;;;11.27;;
17171;SDS011;8701;50.150;8.756;2022-11-18T09:33:17;15.57;;;9.63;;
17171;SDS011;8701;50.150;8.756;2022-11-18T09:37:20;14.77;;;7.50;;
17171;SDS011;8701;50.150;8.756;2022-11-18T09:45:48;13.17;;;8.10;;
17171;SDS011;8701;50.150;8.756;2022-11-18T09:49:59;11.87;;;8.03;;
17171;SDS011;8701;50.150;8.756;2022-11-18T09:54:06;11.80;;;6.70;;
17171;SDS011;8701;50.150;8.756;2022-11-18T09:58:12;6.73;;;5.73;;
17171;SDS011;8701;50.150;8.756;2022-11-18T10:02:29;8.73;;;5.50;;
17171;SDS011;8701;50.150;8.756;2022-11-18T10:06:49;8.23;;;5.57;;
17171;SDS011;8701;50.150;8.756;2022-11-18T10:10:53;6.70;;;5.13;;
17171;SDS011;8701;50.150;8.756;2022-11-18T10:15:06;8.17;;;5.77;;
17171;SDS011;8701;50.150;8.756;2022-11-18T10:19:24;5.70;;;5.10;;
17171;SDS011;8701;50.150;8.756;2022-11-18T10:23:32;6.87;;;5.23;;
17171;SDS011;8701;50.150;8.756;2022-11-18T10:27:52;7.17;;;5.30;;
17171;SDS011;8701;50.150;8.756;2022-11-18T10:31:59;6.67;;;4.80;;
17171;SDS011;8701;50.150;8.756;2022-11-18T10:36:17;6.63;;;4.90;;
17171;SDS011;8701;50.150;8.756;2022-11-18T10:40:28;4.97;;;4.10;;
17171;SDS011;8701;50.150;8.756;2022-11-18T10:44:33;5.27;;;3.80;;
17171;SDS011;8701;50.150;8.756;2022-11-18T10:48:37;6.63;;;3.70;;
17171;SDS011;8701;50.150;8.756;2022-11-18T10:52:49;7.33;;;5.10;;
17171;SDS011;8701;50.150;8.756;2022-11-18T10:56:55;9.70;;;3.90;;
17171;SDS011;8701;50.150;8.756;2022-11-18T11:01:04;5.80;;;4.50;;
17171;SDS011;8701;50.150;8.756;2022-11-18T11:05:14;7.40;;;4.10;;
17171;SDS011;8701;50.150;8.756;2022-11-18T11:09:27;5.50;;;4.30;;
17171;SDS011;8701;50.150;8.756;2022-11-18T11:13:32;3.83;;;3.43;;
17171;SDS011;8701;50.150;8.756;2022-11-18T11:17:41;4.23;;;3.83;;
17171;SDS011;8701;50.150;8.756;2022-11-18T11:22:11;4.07;;;3.77;;
17171;SDS011;8701;50.150;8.756;2022-11-18T11:26:16;10.60;;;4.20;;
17171;SDS011;8701;50.150;8.756;2022-11-18T11:30:28;8.23;;;3.63;;
17171;SDS011;8701;50.150;8.756;2022-11-18T11:34:40;4.80;;;3.30;;
17171;SDS011;8701;50.150;8.756;2022-11-18T11:38:50;8.87;;;3.60;;
17171;SDS011;8701;50.150;8.756;2022-11-18T11:47:30;3.70;;;3.17;;
17171;SDS011;8701;50.150;8.756;2022-11-18T11:51:57;3.97;;;2.90;;
17171;SDS011;8701;50.150;8.756;2022-11-18T11:56:11;4.03;;;3.00;;
17171;SDS011;8701;50.150;8.756;2022-11-18T12:00:20;4.53;;;3.10;;
17171;SDS011;8701;50.150;8.756;2022-11-18T12:09:02;5.90;;;4.07;;
17171;SDS011;8701;50.150;8.756;2022-11-18T12:13:16;3.60;;;3.30;;
17171;SDS011;8701;50.150;8.756;2022-11-18T12:17:26;6.00;;;3.40;;
17171;SDS011;8701;50.150;8.756;2022-11-18T12:21:52;4.73;;;3.80;;
17171;SDS011;8701;50.150;8.756;2022-11-18T12:26:06;9.23;;;3.73;;
17171;SDS011;8701;50.150;8.756;2022-11-18T12:30:16;4.57;;;2.83;;
17171;SDS011;8701;50.150;8.756;2022-11-18T12:38:56;5.50;;;3.77;;
17171;SDS011;8701;50.150;8.756;2022-11-18T12:43:03;5.13;;;4.57;;
17171;SDS011;8701;50.150;8.756;2022-11-18T12:51:57;15.63;;;4.63;;
17171;SDS011;8701;50.150;8.756;2022-11-18T12:56:17;8.10;;;4.53;;
17171;SDS011;8701;50.150;8.756;2022-11-18T13:00:37;3.53;;;3.30;;
17171;SDS011;8701;50.150;8.756;2022-11-18T13:05:01;7.30;;;2.70;;
17171;SDS011;8701;50.150;8.756;2022-11-18T13:09:13;3.63;;;2.70;;
17171;SDS011;8701;50.150;8.756;2022-11-18T13:13:23;5.43;;;3.03;;
17171;SDS011;8701;50.150;8.756;2022-11-18T13:17:32;6.20;;;3.13;;
17171;SDS011;8701;50.150;8.756;2022-11-18T13:21:54;12.53;;;3.33;;
17171;SDS011;8701;50.150;8.756;2022-11-18T13:26:21;6.53;;;3.20;;
17171;SDS011;8701;50.150;8.756;2022-11-18T13:30:30;5.60;;;3.50;;
17171;SDS011;8701;50.150;8.756;2022-11-18T13:38:58;2.43;;;2.03;;
17171;SDS011;8701;50.150;8.756;2022-11-18T13:43:08;1.87;;;1.63;;
17171;SDS011;8701;50.150;8.756;2022-11-18T13:47:15;3.70;;;2.00;;
17171;SDS011;8701;50.150;8.756;2022-11-18T13:51:28;5.20;;;2.43;;
17171;SDS011;8701;50.150;8.756;2022-11-18T13:55:31;5.27;;;2.40;;
17171;SDS011;8701;50.150;8.756;2022-11-18T13:59:37;2.50;;;1.67;;
17171;SDS011;8701;50.150;8.756;2022-11-18T14:03:47;3.10;;;1.90;;
17171;SDS011;8701;50.150;8.756;2022-11-18T14:07:55;3.10;;;1.73;;
17171;SDS011;8701;50.150;8.756;2022-11-18T14:12:03;6.57;;;2.07;;
17171;SDS011;8701;50.150;8.756;2022-11-18T14:20:49;7.40;;;2.07;;
17171;SDS011;8701;50.150;8.756;2022-11-18T14:25:14;8.13;;;2.00;;
17171;SDS011;8701;50.150;8.756;2022-11-18T14:29:26;4.27;;;2.03;;
17171;SDS011;8701;50.150;8.756;2022-11-18T14:33:31;4.30;;;2.40;;
17171;SDS011;8701;50.150;8.756;2022-11-18T14:42:18;6.13;;;2.23;;
17171;SDS011;8701;50.150;8.756;2022-11-18T14:50:46;7.73;;;2.97;;
17171;SDS011;8701;50.150;8.756;2022-11-18T14:54:49;4.20;;;2.30;;
17171;SDS011;8701;50.150;8.756;2022-11-18T15:03:05;7.50;;;2.73;;
17171;SDS011;8701;50.150;8.756;2022-11-18T15:07:22;12.53;;;7.50;;
17171;SDS011;8701;50.150;8.756;2022-11-18T15:11:33;9.80;;;6.57;;
17171;SDS011;8701;50.150;8.756;2022-11-18T15:15:41;11.63;;;6.43;;
17171;SDS011;8701;50.150;8.756;2022-11-18T15:19:43;9.67;;;5.63;;
17171;SDS011;8701;50.150;8.756;2022-11-18T15:23:53;9.43;;;3.47;;
17171;SDS011;8701;50.150;8.756;2022-11-18T15:27:56;7.63;;;3.87;;
17171;SDS011;8701;50.150;8.756;2022-11-18T15:36:27;8.40;;;4.33;;
17171;SDS011;8701;50.150;8.756;2022-11-18T15:40:29;8.73;;;4.87;;
17171;SDS011;8701;50.150;8.756;2022-11-18T15:44:49;7.03;;;4.17;;
17171;SDS011;8701;50.150;8.756;2022-11-18T15:49:09;6.43;;;5.27;;
17171;SDS011;8701;50.150;8.756;2022-11-18T15:53:32;6.87;;;4.30;;
17171;SDS011;8701;50.150;8.756;2022-11-18T15:57:37;9.13;;;4.47;;
17171;SDS011;8701;50.150;8.756;2022-11-18T16:01:44;9.23;;;4.20;;
17171;SDS011;8701;50.150;8.756;2022-11-18T16:05:52;10.90;;;4.80;;
17171;SDS011;8701;50.150;8.756;2022-11-18T16:09:55;7.17;;;4.93;;
17171;SDS011;8701;50.150;8.756;2022-11-18T16:14:15;6.63;;;4.60;;
17171;SDS011;8701;50.150;8.756;2022-11-18T16:23:02;8.90;;;4.77;;
17171;SDS011;8701;50.150;8.756;2022-11-18T16:27:05;7.43;;;5.03;;
17171;SDS011;8701;50.150;8.756;2022-11-18T16:31:09;7.07;;;4.97;;
17171;SDS011;8701;50.150;8.756;2022-11-18T16:35:35;10.83;;;6.33;;
17171;SDS011;8701;50.150;8.756;2022-11-18T16:39:37;9.77;;;6.13;;
17171;SDS011;8701;50.150;8.756;2022-11-18T16:43:42;8.33;;;5.13;;
17171;SDS011;8701;50.150;8.756;2022-11-18T16:47:45;12.27;;;5.57;;
17171;SDS011;8701;50.150;8.756;2022-11-18T16:56:28;11.50;;;6.10;;
17171;SDS011;8701;50.150;8.756;2022-11-18T17:00:49;29.70;;;16.60;;
17171;SDS011;8701;50.150;8.756;2022-11-18T17:04:52;24.23;;;12.87;;
17171;SDS011;8701;50.150;8.756;2022-11-18T17:08:57;18.77;;;11.40;;
17171;SDS011;8701;50.150;8.756;2022-11-18T17:17:15;8.03;;;5.10;;
17171;SDS011;8701;50.150;8.756;2022-11-18T17:21:18;8.43;;;4.60;;
17171;SDS011;8701;50.150;8.756;2022-11-18T17:25:29;6.70;;;4.00;;
17171;SDS011;8701;50.150;8.756;2022-11-18T17:29:31;13.53;;;8.50;;
17171;SDS011;8701;50.150;8.756;2022-11-18T17:33:35;12.40;;;5.47;;
17171;SDS011;8701;50.150;8.756;2022-11-18T17:37:40;7.00;;;4.70;;
17171;SDS011;8701;50.150;8.756;2022-11-18T17:41:44;10.70;;;4.90;;
17171;SDS011;8701;50.150;8.756;2022-11-18T17:46:06;6.00;;;3.87;;
17171;SDS011;8701;50.150;8.756;2022-11-18T17:50:08;6.20;;;3.90;;
17171;SDS011;8701;50.150;8.756;2022-11-18T17:54:15;7.00;;;4.70;;
17171;SDS011;8701;50.150;8.756;2022-11-18T17:58:20;7.90;;;4.93;;
17171;SDS011;8701;50.150;8.756;2022-11-18T18:02:37;6.80;;;4.40;;
17171;SDS011;8701;50.150;8.756;2022-11-18T18:06:43;17.50;;;4.90;;
17171;SDS011;8701;50.150;8.756;2022-11-18T18:10:52;8.70;;;4.80;;
17171;SDS011;8701;50.150;8.756;2022-11-18T18:14:59;12.20;;;5.23;;
17171;SDS011;8701;50.150;8.756;2022-11-18T18:19:05;7.97;;;6.17;;
17171;SDS011;8701;50.150;8.756;2022-11-18T18:23:10;13.17;;;9.33;;
17171;SDS011;8701;50.150;8.756;2022-11-18T18:27:16;12.10;;;9.43;;
17171;SDS011;8701;50.150;8.756;2022-11-18T18:31:21;15.20;;;6.97;;
17171;SDS011;8701;50.150;8.756;2022-11-18T18:35:23;9.73;;;6.60;;
17171;SDS011;8701;50.150;8.756;2022-11-18T18:39:25;13.37;;;6.77;;
17171;SDS011;8701;50.150;8.756;2022-11-18T18:43:29;9.73;;;5.90;;
17171;SDS011;8701;50.150;8.756;2022-11-18T18:47:33;10.10;;;5.93;;
17171;SDS011;8701;50.150;8.756;2022-11-18T18:51:43;12.50;;;6.07;;
17171;SDS011;8701;50.150;8.756;2022-11-18T18:55:53;7.53;;;5.67;;
17171;SDS011;8701;50.150;8.756;2022-11-18T18:59:56;8.37;;;5.53;;
17171;SDS011;8701;50.150;8.756;2022-11-18T19:04:00;11.47;;;5.47;;
17171;SDS011;8701;50.150;8.756;2022-11-18T19:08:04;8.93;;;5.27;;
17171;SDS011;8701;50.150;8.756;2022-11-18T19:12:07;6.83;;;4.87;;
17171;SDS011;8701;50.150;8.756;2022-11-18T19:16:27;7.80;;;4.87;;
17171;SDS011;8701;50.150;8.756;2022-11-18T19:20:31;13.00;;;6.00;;
17171;SDS011;8701;50.150;8.756;2022-11-18T19:24:37;12.30;;;6.57;;
17171;SDS011;8701;50.150;8.756;2022-11-18T19:28:41;13.23;;;6.20;;
17171;SDS011;8701;50.150;8.756;2022-11-18T19:32:44;10.53;;;6.60;;
17171;SDS011;8701;50.150;8.756;2022-11-18T19:36:48;6.07;;;5.43;;
17171;SDS011;8701;50.150;8.756;2022-11-18T19:40:56;14.80;;;8.93;;
17171;SDS011;8701;50.150;8.756;2022-11-18T19:44:59;23.23;;;13.13;;
17171;SDS011;8701;50.150;8.756;2022-11-18T19:49:01;25.67;;;14.80;;
17171;SDS011;8701;50.150;8.756;2022-11-18T19:57:47;22.07;;;12.57;;
17171;SDS011;8701;50.150;8.756;2022-11-18T20:01:56;19.47;;;14.00;;
17171;SDS011;8701;50.150;8.756;2022-11-18T20:10:14;20.17;;;11.47;;
17171;SDS011;8701;50.150;8.756;2022-11-18T20:14:20;13.13;;;8.37;;
17171;SDS011;8701;50.150;8.756;2022-11-18T20:18:23;13.70;;;7.87;;
17171;SDS011;8701;50.150;8.756;2022-11-18T20:22:25;12.43;;;6.63;;
17171;SDS011;8701;50.150;8.756;2022-11-18T20:26:30;9.90;;;6.97;;
17171;SDS011;8701;50.150;8.756;2022-11-18T20:30:34;9.60;;;6.60;;
17171;SDS011;8701;50.150;8.756;2022-11-18T20:34:36;10.37;;;6.60;;
17171;SDS011;8701;50.150;8.756;2022-11-18T20:38:41;10.97;;;7.30;;
17171;SDS011;8701;50.150;8.756;2022-11-18T20:42:47;10.30;;;6.90;;
17171;SDS011;8701;50.150;8.756;2022-11-18T20:47:08;18.10;;;7.60;;
17171;SDS011;8701;50.150;8.756;2022-11-18T20:51:11;10.20;;;7.30;;
17171;SDS011;8701;50.150;8.756;2022-11-18T20:55:15;9.37;;;6.60;;
17171;SDS011;8701;50.150;8.756;2022-11-18T20:59:19;10.47;;;6.63;;
17171;SDS011;8701;50.150;8.756;2022-11-18T21:03:22;8.63;;;6.63;;
17171;SDS011;8701;50.150;8.756;2022-11-18T21:07:24;11.53;;;7.23;;
17171;SDS011;8701;50.150;8.756;2022-11-18T21:11:31;11.60;;;8.30;;
17171;SDS011;8701;50.150;8.756;2022-11-18T21:15:36;14.23;;;7.50;;
17171;SDS011;8701;50.150;8.756;2022-11-18T21:19:38;14.73;;;6.97;;
17171;SDS011;8701;50.150;8.756;2022-11-18T21:28:25;13.43;;;5.83;;
17171;SDS011;8701;50.150;8.756;2022-11-18T21:32:36;7.30;;;5.47;;
17171;SDS011;8701;50.150;8.756;2022-11-18T21:36:43;6.90;;;5.47;;
17171;SDS011;8701;50.150;8.756;2022-11-18T21:40:45;9.80;;;6.13;;
17171;SDS011;8701;50.150;8.756;2022-11-18T21:44:49;10.07;;;6.80;;
17171;SDS011;8701;50.150;8.756;2022-11-18T21:48:52;9.30;;;6.10;;
17171;SDS011;8701;50.150;8.756;2022-11-18T21:52:58;11.20;;;6.27;;
17171;SDS011;8701;50.150;8.756;2022-11-18T21:57:15;11.00;;;7.10;;
17171;SDS011;8701;50.150;8.756;2022-11-18T22:01:18;12.67;;;7.63;;
17171;SDS011;8701;50.150;8.756;2022-11-18T22:05:24;10.23;;;7.30;;
17171;SDS011;8701;50.150;8.756;2022-11-18T22:09:27;9.80;;;7.93;;
17171;SDS011;8701;50.150;8.756;2022-11-18T22:13:30;13.20;;;7.80;;
17171;SDS011;8701;50.150;8.756;2022-11-18T22:17:33;10.23;;;8.10;;
17171;SDS011;8701;50.150;8.756;2022-11-18T22:21:36;7.80;;;6.93;;
17171;SDS011;8701;50.150;8.756;2022-11-18T22:25:39;7.70;;;6.77;;
17171;SDS011;8701;50.150;8.756;2022-11-18T22:29:41;6.60;;;5.13;;
17171;SDS011;8701;50.150;8.756;2022-11-18T22:33:43;5.03;;;4.53;;
17171;SDS011;8701;50.150;8.756;2022-11-18T22:37:47;11.07;;;4.43;;
17171;SDS011;8701;50.150;8.756;2022-11-18T22:41:49;4.93;;;4.13;;
17171;SDS011;8701;50.150;8.756;2022-11-18T22:46:09;8.10;;;4.97;;
17171;SDS011;8701;50.150;8.756;2022-11-18T22:50:11;8.30;;;4.30;;
17171;SDS011;8701;50.150;8.756;2022-11-18T22:54:15;9.20;;;4.00;;
17171;SDS011;8701;50.150;8.756;2022-11-18T22:58:17;4.33;;;3.90;;
17171;SDS011;8701;50.150;8.756;2022-11-18T23:02:19;4.60;;;4.03;;
17171;SDS011;8701;50.150;8.756;2022-11-18T23:06:23;4.80;;;3.73;;
17171;SDS011;8701;50.150;8.756;2022-11-18T23:10:27;8.50;;;4.27;;
17171;SDS011;8701;50.150;8.756;2022-11-18T23:14:33;4.33;;;3.93;;
17171;SDS011;8701;50.150;8.756;2022-11-18T23:18:35;6.33;;;3.77;;
17171;SDS011;8701;50.150;8.756;2022-11-18T23:22:37;3.50;;;3.20;;
17171;SDS011;8701;50.150;8.756;2022-11-18T23:26:41;4.90;;;4.07;;
17171;SDS011;8701;50.150;8.756;2022-11-18T23:30:46;4.10;;;3.70;;
17171;SDS011;8701;50.150;8.756;2022-11-18T23:34:48;4.03;;;3.63;;
17171;SDS011;8701;50.150;8.756;2022-11-18T23:38:51;6.43;;;3.27;;
17171;SDS011;8701;50.150;8.756;2022-11-18T23:42:55;4.77;;;3.90;;
17171;SDS011;8701;50.150;8.756;2022-11-18T23:46:58;3.70;;;3.40;;
17171;SDS011;8701;50.150;8.756;2022-11-18T23:51:01;5.40;;;3.80;;
17171;SDS011;8701;50.150;8.756;2022-11-18T23:55:07;5.13;;;3.90;;
17171;SDS011;8701;50.150;8.756;2022-11-18T23:59:12;6.70;;;4.70;;
